createdAt,value
2018-08-19T03:14:34.218Z,79.71
2018-08-19T03:15:34.174Z,79.52
2018-08-19T03:16:34.177Z,78.75
2018-08-19T03:17:34.188Z,77.92
2018-08-19T03:18:34.182Z,77.98
2018-08-19T03:19:34.168Z,78.46
2018-08-19T03:20:34.169Z,78.85
2018-08-19T03:21:34.163Z,80.15
2018-08-19T03:22:34.173Z,79.71
2018-08-19T03:23:34.182Z,78.56
2018-08-19T03:24:34.185Z,78.65
2018-08-19T03:25:34.182Z,77.83
2018-08-19T03:26:34.189Z,78.40
2018-08-19T03:27:34.177Z,79.13
2018-08-19T03:28:34.173Z,78.59
2018-08-19T03:29:34.186Z,78.85
2018-08-19T03:30:34.186Z,79.52
2018-08-19T03:31:34.184Z,77.06
2018-08-19T03:32:34.234Z,77.44
2018-08-19T03:33:34.219Z,77.25
2018-08-19T03:34:34.233Z,75.55
2018-08-19T03:35:34.194Z,74.88
2018-08-19T03:36:34.193Z,74.49
2018-08-19T03:37:34.209Z,75.99
2018-08-19T03:38:34.223Z,76.48
2018-08-19T03:39:34.204Z,76.34
2018-08-19T03:40:34.207Z,77.69
2018-08-19T03:41:34.229Z,77.78
2018-08-19T03:42:34.217Z,75.07
2018-08-19T03:43:34.234Z,75.61
2018-08-19T03:44:34.224Z,76.18
2018-08-19T03:45:34.226Z,76.92
2018-08-19T03:46:34.237Z,77.21
2018-08-19T03:47:34.254Z,77.69
2018-08-19T03:48:34.250Z,79.28
2018-08-19T03:49:34.262Z,79.67
2018-08-19T03:50:34.245Z,79.77
2018-08-19T03:51:34.245Z,80.06
2018-08-19T03:52:34.241Z,80.63
2018-08-19T03:53:34.246Z,81.02
2018-08-19T03:54:34.255Z,79.03
2018-08-19T03:55:34.261Z,78.27
2018-08-19T03:56:34.255Z,78.90
2018-08-19T03:57:34.284Z,79.77
2018-08-19T03:58:34.250Z,79.10
2018-08-19T03:59:34.256Z,79.86
2018-08-19T04:00:34.267Z,79.67
2018-08-19T04:01:34.265Z,80.44
2018-08-19T04:02:34.275Z,79.71
2018-08-19T04:03:34.270Z,78.36
2018-08-19T04:04:34.274Z,77.88
2018-08-19T04:05:34.273Z,78.65
2018-08-19T04:06:34.288Z,78.17
2018-08-19T04:07:34.288Z,77.21
2018-08-19T04:08:34.283Z,78.94
2018-08-19T04:09:34.284Z,81.37
2018-08-19T04:10:34.283Z,82.32
2018-08-19T04:11:34.314Z,82.29
2018-08-19T04:12:34.297Z,81.30
2018-08-19T04:13:34.323Z,79.77
2018-08-19T04:14:34.298Z,80.44
2018-08-19T04:15:34.303Z,80.15
2018-08-19T04:16:34.303Z,81.02
2018-08-19T04:17:34.336Z,80.92
2018-08-19T04:18:34.315Z,78.46
2018-08-19T04:19:34.313Z,78.27
2018-08-19T04:20:34.333Z,79.48
2018-08-19T04:21:34.334Z,79.03
2018-08-19T04:22:34.344Z,78.65
2018-08-19T04:23:34.382Z,78.08
2018-08-19T04:24:34.343Z,78.36
2018-08-19T04:25:34.333Z,79.28
2018-08-19T04:26:34.338Z,78.27
2018-08-19T04:27:34.365Z,77.21
2018-08-19T04:28:34.338Z,76.63
2018-08-19T04:29:34.344Z,77.21
2018-08-19T04:30:34.354Z,77.01
2018-08-19T04:31:34.358Z,76.28
2018-08-19T04:32:34.351Z,76.28
2018-08-19T04:33:34.346Z,75.38
2018-08-19T04:34:34.363Z,76.53
2018-08-19T04:35:34.354Z,76.63
2018-08-19T04:36:34.366Z,75.13
2018-08-19T04:37:34.375Z,78.03
2018-08-19T04:38:34.371Z,79.86
2018-08-19T04:39:34.373Z,79.67
2018-08-19T04:40:34.399Z,79.96
2018-08-19T04:41:34.387Z,79.00
2018-08-19T04:42:34.401Z,78.46
2018-08-19T04:43:34.395Z,78.90
2018-08-19T04:44:34.394Z,79.67
2018-08-19T04:45:34.414Z,80.69
2018-08-19T04:46:34.417Z,79.10
2018-08-19T04:47:34.391Z,78.08
2018-08-19T04:48:34.400Z,77.01
2018-08-19T04:49:34.417Z,78.27
2018-08-19T04:50:34.400Z,78.85
2018-08-19T04:51:34.403Z,79.38
2018-08-19T04:52:34.398Z,79.58
2018-08-19T04:53:34.432Z,79.58
2018-08-19T04:54:34.429Z,79.86
2018-08-19T04:55:34.431Z,80.73
2018-08-19T04:56:34.436Z,80.35
2018-08-19T04:57:34.421Z,79.52
2018-08-19T04:58:34.434Z,79.77
2018-08-19T04:59:34.428Z,79.43
2018-08-19T05:00:34.439Z,80.06
2018-08-19T05:01:34.444Z,80.63
2018-08-19T05:02:34.470Z,81.60
2018-08-19T05:03:34.495Z,81.75
2018-08-19T05:04:34.448Z,82.32
2018-08-19T05:05:34.444Z,81.79
2018-08-19T05:06:34.445Z,81.02
2018-08-19T05:07:34.460Z,81.02
2018-08-19T05:08:34.455Z,79.71
2018-08-19T05:09:34.471Z,79.81
2018-08-19T05:10:34.482Z,80.44
2018-08-19T05:11:34.466Z,82.08
2018-08-19T05:12:34.479Z,82.57
2018-08-19T05:13:34.482Z,83.06
2018-08-19T05:14:34.465Z,83.34
2018-08-19T05:15:34.531Z,82.42
2018-08-19T05:16:34.480Z,81.21
2018-08-19T05:17:34.492Z,79.81
2018-08-19T05:18:34.484Z,80.06
2018-08-19T05:19:34.484Z,80.15
2018-08-19T05:20:34.490Z,79.52
2018-08-19T05:21:34.490Z,79.81
2018-08-19T05:22:34.507Z,78.85
2018-08-19T05:23:34.499Z,80.35
2018-08-19T05:24:34.507Z,82.14
2018-08-19T05:25:34.508Z,81.56
2018-08-19T05:26:34.531Z,82.23
2018-08-19T05:27:34.538Z,81.40
2018-08-19T05:28:34.538Z,80.83
2018-08-19T05:29:34.521Z,80.44
2018-08-19T05:30:34.544Z,79.77
2018-08-19T05:31:34.614Z,81.40
2018-08-19T05:32:34.536Z,82.37
2018-08-19T05:33:34.525Z,81.79
2018-08-19T05:34:34.532Z,82.17
2018-08-19T05:35:34.527Z,82.17
2018-08-19T05:36:34.546Z,82.42
2018-08-19T05:37:34.567Z,81.06
2018-08-19T05:38:34.539Z,80.68
2018-08-19T05:39:34.537Z,78.79
2018-08-19T05:40:34.547Z,78.46
2018-08-19T05:41:34.554Z,78.85
2018-08-19T05:42:34.704Z,79.13
2018-08-19T05:43:34.565Z,78.75
2018-08-19T05:44:34.558Z,79.33
2018-08-19T05:45:34.634Z,81.06
2018-08-19T05:46:34.591Z,81.83
2018-08-19T05:47:34.609Z,81.79
2018-08-19T05:48:34.584Z,82.56
2018-08-19T05:49:34.588Z,82.56
2018-08-19T05:50:34.589Z,83.04
2018-08-19T05:51:34.582Z,83.23
2018-08-19T05:52:34.583Z,80.38
2018-08-19T05:53:34.595Z,79.17
2018-08-19T05:54:34.611Z,78.88
2018-08-19T05:55:34.670Z,78.50
2018-08-19T05:56:34.609Z,77.92
2018-08-19T05:57:34.597Z,79.66
2018-08-19T05:58:34.618Z,80.58
2018-08-19T05:59:34.615Z,81.54
2018-08-19T06:00:34.639Z,82.12
2018-08-19T06:01:34.620Z,81.63
2018-08-19T06:02:34.641Z,80.14
2018-08-19T06:03:34.656Z,78.79
2018-08-19T06:04:34.653Z,80.14
2018-08-19T06:05:34.639Z,80.43
2018-08-19T06:06:34.634Z,79.02
2018-08-19T06:07:34.689Z,79.31
2018-08-19T06:08:34.640Z,79.41
2018-08-19T06:09:34.668Z,78.83
2018-08-19T06:10:34.675Z,78.44
2018-08-19T06:11:34.955Z,78.29
2018-08-19T06:12:34.696Z,76.26
2018-08-19T06:13:34.668Z,75.78
2018-08-19T06:14:34.671Z,75.40
2018-08-19T06:15:34.675Z,76.36
2018-08-19T06:16:34.674Z,74.91
2018-08-19T06:17:34.680Z,73.50
2018-08-19T06:18:34.686Z,71.73
2018-08-19T06:19:34.683Z,71.15
2018-08-19T06:20:34.691Z,71.28
2018-08-19T06:21:34.697Z,67.52
2018-08-19T06:22:34.700Z,67.43
2018-08-19T06:23:34.709Z,67.46
2018-08-19T06:24:34.755Z,66.49
2018-08-19T06:25:34.711Z,66.20
2018-08-19T06:26:34.735Z,64.92
2018-08-19T06:27:34.749Z,64.37
2018-08-19T06:28:34.726Z,62.73
2018-08-19T06:29:34.736Z,62.82
2018-08-19T06:30:34.739Z,63.21
2018-08-19T06:31:34.747Z,62.73
2018-08-19T06:32:34.751Z,61.86
2018-08-19T06:33:34.751Z,61.19
2018-08-19T06:34:34.879Z,61.38
2018-08-19T06:35:34.769Z,61.57
2018-08-19T06:36:34.781Z,60.19
2018-08-19T06:37:34.786Z,61.19
2018-08-19T06:38:34.792Z,60.51
2018-08-19T06:39:34.783Z,60.89
2018-08-19T06:40:34.791Z,61.38
2018-08-19T06:41:34.795Z,61.28
2018-08-19T06:42:34.801Z,61.41
2018-08-19T06:43:34.836Z,59.77
2018-08-19T06:44:34.817Z,60.25
2018-08-19T06:45:34.825Z,60.73
2018-08-19T06:46:34.824Z,60.44
2018-08-19T06:47:34.861Z,58.90
2018-08-19T06:48:34.827Z,59.83
2018-08-19T06:49:34.829Z,59.74
2018-08-19T06:50:34.837Z,59.25
2018-08-19T06:51:34.850Z,59.55
2018-08-19T06:52:34.853Z,59.64
2018-08-19T06:53:34.862Z,60.13
2018-08-19T06:54:34.869Z,60.03
2018-08-19T06:55:34.876Z,59.74
2018-08-19T06:56:34.870Z,59.35
2018-08-19T06:57:34.877Z,59.61
2018-08-19T06:58:34.875Z,59.45
2018-08-19T06:59:34.895Z,59.83
2018-08-19T07:00:34.897Z,59.35
2018-08-19T07:01:34.904Z,60.22
2018-08-19T07:02:34.911Z,60.13
2018-08-19T07:03:34.998Z,60.31
2018-08-19T07:04:34.912Z,59.45
2018-08-19T07:05:34.919Z,59.45
2018-08-19T07:06:34.922Z,59.96
2018-08-19T07:07:34.956Z,59.09
2018-08-19T07:08:34.944Z,58.90
2018-08-19T07:09:34.956Z,59.00
2018-08-19T07:10:34.958Z,59.09
2018-08-19T07:11:34.944Z,60.06
2018-08-19T07:12:35.011Z,59.67
2018-08-19T07:13:34.959Z,59.28
2018-08-19T07:14:34.977Z,59.09
2018-08-19T07:15:35.058Z,59.19
2018-08-19T07:16:34.971Z,59.00
2018-08-19T07:17:35.107Z,59.77
2018-08-19T07:18:35.026Z,59.09
2018-08-19T07:19:34.988Z,58.87
2018-08-19T07:20:35.000Z,59.45
2018-08-19T07:21:35.041Z,59.55
2018-08-19T07:22:35.008Z,59.55
2018-08-19T07:23:35.018Z,59.67
2018-08-19T07:24:35.019Z,59.74
2018-08-19T07:25:35.031Z,59.74
2018-08-19T07:26:35.031Z,59.83
2018-08-19T07:27:35.041Z,59.64
2018-08-19T07:28:35.036Z,59.64
2018-08-19T07:29:35.054Z,59.74
2018-08-19T07:30:35.052Z,59.77
2018-08-19T07:31:35.061Z,59.35
2018-08-19T07:32:35.064Z,59.77
2018-08-19T07:33:35.068Z,59.38
2018-08-19T07:34:35.081Z,59.86
2018-08-19T07:35:35.093Z,60.25
2018-08-19T07:36:35.089Z,59.96
2018-08-19T07:37:35.084Z,59.19
2018-08-19T07:38:35.104Z,59.38
2018-08-19T07:39:35.120Z,59.28
2018-08-19T07:40:35.113Z,59.19
2018-08-19T07:41:35.118Z,59.64
2018-08-19T07:42:35.114Z,59.77
2018-08-19T07:43:35.116Z,59.38
2018-08-19T07:44:35.124Z,59.38
2018-08-19T07:45:35.129Z,59.19
2018-08-19T07:46:35.147Z,58.80
2018-08-19T07:47:35.153Z,58.90
2018-08-19T07:48:35.146Z,58.61
2018-08-19T07:49:35.166Z,58.90
2018-08-19T07:50:35.161Z,58.70
2018-08-19T07:51:35.180Z,59.09
2018-08-19T07:52:35.164Z,58.83
2018-08-19T07:53:35.173Z,58.73
2018-08-19T07:54:35.180Z,58.15
2018-08-19T07:55:35.189Z,58.64
2018-08-19T07:56:35.208Z,58.83
2018-08-19T07:57:35.200Z,58.93
2018-08-19T07:58:35.202Z,59.22
2018-08-19T07:59:35.222Z,58.93
2018-08-19T08:00:35.209Z,58.93
2018-08-19T08:01:35.240Z,59.22
2018-08-19T08:02:35.227Z,58.15
2018-08-19T08:03:35.228Z,58.54
2018-08-19T08:04:35.233Z,58.73
2018-08-19T08:05:35.246Z,58.93
2018-08-19T08:06:35.246Z,59.12
2018-08-19T08:07:35.248Z,58.86
2018-08-19T08:08:35.254Z,58.37
2018-08-19T08:09:35.276Z,58.25
2018-08-19T08:10:35.294Z,58.45
2018-08-19T08:11:35.268Z,59.02
2018-08-19T08:12:35.281Z,59.05
2018-08-19T08:13:35.283Z,59.15
2018-08-19T08:14:35.312Z,58.25
2018-08-19T08:15:35.316Z,58.45
2018-08-19T08:16:35.321Z,58.35
2018-08-19T08:17:35.333Z,58.47
2018-08-19T08:18:35.329Z,58.28
2018-08-19T08:19:35.321Z,58.09
2018-08-19T08:20:35.328Z,58.09
2018-08-19T08:21:35.459Z,57.51
2018-08-19T08:22:35.338Z,57.12
2018-08-19T08:23:35.333Z,58.18
2018-08-19T08:24:35.343Z,58.57
2018-08-19T08:25:35.352Z,57.60
2018-08-19T08:26:35.352Z,58.47
2018-08-19T08:27:35.370Z,58.09
2018-08-19T08:28:35.361Z,57.03
2018-08-19T08:29:35.367Z,57.19
2018-08-19T08:30:35.372Z,57.31
2018-08-19T08:31:35.405Z,57.41
2018-08-19T08:32:35.398Z,56.76
2018-08-19T08:33:35.396Z,56.35
2018-08-19T08:34:35.400Z,55.99
2018-08-19T08:35:35.426Z,56.18
2018-08-19T08:36:35.408Z,55.70
2018-08-19T08:37:35.421Z,56.18
2018-08-19T08:38:35.422Z,56.15
2018-08-19T08:39:35.431Z,56.18
2018-08-19T08:40:35.466Z,56.18
2018-08-19T08:41:35.448Z,54.93
2018-08-19T08:42:35.465Z,55.31
2018-08-19T08:43:35.450Z,54.05
2018-08-19T08:44:35.487Z,54.99
2018-08-19T08:45:35.466Z,54.71
2018-08-19T08:46:35.471Z,55.19
2018-08-19T08:47:35.587Z,53.64
2018-08-19T08:48:35.483Z,54.22
2018-08-19T08:49:35.510Z,54.03
2018-08-19T08:50:35.493Z,53.77
2018-08-19T08:51:35.507Z,53.38
2018-08-19T08:52:35.510Z,53.83
2018-08-19T08:53:35.517Z,53.67
2018-08-19T08:54:35.518Z,54.05
2018-08-19T08:55:35.548Z,54.35
2018-08-19T08:56:35.539Z,52.89
2018-08-19T08:57:35.557Z,52.63
2018-08-19T08:58:35.543Z,53.57
2018-08-19T08:59:35.547Z,53.67
2018-08-19T09:00:35.552Z,53.96
2018-08-19T09:01:35.561Z,53.57
2018-08-19T09:02:35.565Z,53.96
2018-08-19T09:03:35.572Z,53.57
2018-08-19T09:04:35.578Z,53.28
2018-08-19T09:05:35.581Z,53.38
2018-08-19T09:06:35.589Z,53.21
2018-08-19T09:07:35.625Z,52.14
2018-08-19T09:08:35.608Z,51.47
2018-08-19T09:09:35.619Z,51.76
2018-08-19T09:10:35.612Z,51.28
2018-08-19T09:11:35.624Z,52.05
2018-08-19T09:12:35.619Z,51.56
2018-08-19T09:13:35.628Z,52.24
2018-08-19T09:14:35.642Z,52.63
2018-08-19T09:15:35.643Z,52.05
2018-08-19T09:16:35.662Z,51.08
2018-08-19T09:17:35.670Z,51.76
2018-08-19T09:18:35.677Z,50.96
2018-08-19T09:19:35.699Z,50.70
2018-08-19T09:20:35.679Z,50.18
2018-08-19T09:21:35.708Z,50.50
2018-08-19T09:22:35.688Z,51.66
2018-08-19T09:23:35.737Z,50.76
2018-08-19T09:24:35.742Z,50.79
2018-08-19T09:25:35.702Z,50.79
2018-08-19T09:26:35.739Z,50.82
2018-08-19T09:27:35.732Z,51.01
2018-08-19T09:28:35.720Z,51.01
2018-08-19T09:29:35.741Z,51.20
2018-08-19T09:30:35.765Z,51.08
2018-08-19T09:31:35.745Z,51.47
2018-08-19T09:32:35.782Z,51.66
2018-08-19T09:33:35.757Z,51.76
2018-08-19T09:34:35.763Z,51.30
2018-08-19T09:35:35.767Z,50.72
2018-08-19T09:36:35.781Z,51.30
2018-08-19T09:37:35.781Z,51.30
2018-08-19T09:38:35.784Z,51.42
2018-08-19T09:39:35.817Z,51.52
2018-08-19T09:40:35.817Z,51.52
2018-08-19T09:41:35.819Z,51.81
2018-08-19T09:42:35.813Z,51.72
2018-08-19T09:43:35.831Z,51.81
2018-08-19T09:44:35.828Z,51.32
2018-08-19T09:45:35.842Z,51.90
2018-08-19T09:46:35.842Z,52.66
2018-08-19T09:47:35.867Z,51.98
2018-08-19T09:48:35.857Z,51.68
2018-08-19T09:49:35.865Z,51.59
2018-08-19T09:50:35.863Z,51.28
2018-08-19T09:51:35.896Z,51.68
2018-08-19T09:52:35.882Z,50.72
2018-08-19T09:53:35.905Z,50.35
2018-08-19T09:54:35.936Z,49.97
2018-08-19T09:55:36.691Z,50.16
2018-08-19T09:56:35.933Z,50.35
2018-08-19T09:57:35.939Z,49.77
2018-08-19T09:58:35.911Z,49.87
2018-08-19T09:59:35.944Z,49.39
2018-08-19T10:00:35.941Z,49.10
2018-08-19T10:01:36.064Z,50.07
2018-08-19T10:02:35.946Z,50.84
2018-08-19T10:03:35.953Z,50.65
2018-08-19T10:04:35.958Z,50.16
2018-08-19T10:05:35.980Z,49.70
2018-08-19T10:06:35.968Z,50.55
2018-08-19T10:07:36.051Z,50.35
2018-08-19T10:08:35.989Z,50.74
2018-08-19T10:09:36.022Z,49.77
2018-08-19T10:10:36.503Z,49.77
2018-08-19T10:11:36.000Z,50.16
2018-08-19T10:12:36.005Z,49.97
2018-08-19T10:13:36.060Z,49.68
2018-08-19T10:14:36.018Z,50.07
2018-08-19T10:15:36.090Z,49.68
2018-08-19T10:16:36.038Z,49.87
2018-08-19T10:17:36.075Z,50.16
2018-08-19T10:18:36.042Z,50.55
2018-08-19T10:19:36.070Z,50.19
2018-08-19T10:20:36.056Z,50.16
2018-08-19T10:21:36.089Z,49.70
2018-08-19T10:22:36.080Z,49.80
2018-08-19T10:23:36.083Z,50.19
2018-08-19T10:24:36.080Z,50.67
2018-08-19T10:25:36.154Z,50.38
2018-08-19T10:26:36.257Z,49.80
2018-08-19T10:27:36.103Z,49.87
2018-08-19T10:28:36.103Z,49.51
2018-08-19T10:29:36.115Z,49.80
2018-08-19T10:30:36.121Z,49.41
2018-08-19T10:31:36.127Z,49.32
2018-08-19T10:32:36.144Z,49.58
2018-08-19T10:33:36.139Z,49.87
2018-08-19T10:34:36.163Z,49.77
2018-08-19T10:35:36.175Z,48.25
2018-08-19T10:36:36.157Z,48.06
2018-08-19T10:37:36.165Z,47.19
2018-08-19T10:38:36.171Z,47.19
2018-08-19T10:39:36.195Z,47.19
2018-08-19T10:40:36.208Z,46.89
2018-08-19T10:41:36.192Z,46.92
2018-08-19T10:42:36.282Z,46.72
2018-08-19T10:43:36.237Z,46.72
2018-08-19T10:44:36.222Z,45.75
2018-08-19T10:45:36.222Z,47.11
2018-08-19T10:46:36.263Z,47.47
2018-08-19T10:47:36.261Z,48.35
2018-08-19T10:48:36.248Z,49.41
2018-08-19T10:49:36.254Z,48.64
2018-08-19T10:50:36.338Z,48.54
2018-08-19T10:51:44.903Z,49.02
2018-08-19T10:53:30.968Z,50.09
2018-08-19T10:54:30.974Z,47.50
2018-08-19T10:55:30.972Z,48.76
2018-08-19T10:56:30.989Z,47.02
2018-08-19T10:57:30.992Z,46.94
2018-08-19T10:58:31.038Z,47.40
2018-08-19T10:59:30.996Z,47.72
2018-08-19T11:00:31.004Z,46.82
2018-08-19T11:01:31.013Z,47.79
2018-08-19T11:02:31.013Z,47.40
2018-08-19T11:03:31.021Z,48.18
2018-08-19T11:04:31.032Z,47.69
2018-08-19T11:05:31.050Z,47.79
2018-08-19T11:06:31.094Z,48.18
2018-08-19T11:07:31.043Z,47.69
2018-08-19T11:08:31.047Z,47.89
2018-08-19T11:09:31.054Z,45.48
2018-08-19T11:10:31.071Z,45.48
2018-08-19T11:11:31.109Z,46.53
2018-08-19T11:12:31.075Z,43.64
2018-08-19T11:13:31.125Z,44.61
2018-08-19T11:14:31.088Z,44.59
2018-08-19T11:15:31.101Z,44.30
2018-08-19T11:16:31.102Z,42.86
2018-08-19T11:17:31.109Z,42.96
2018-08-19T11:18:31.121Z,43.35
2018-08-19T11:19:31.119Z,43.64
2018-08-19T11:20:31.133Z,44.40
2018-08-19T11:21:31.165Z,43.72
2018-08-19T11:22:31.150Z,45.47
2018-08-19T11:23:31.149Z,44.98
2018-08-19T11:24:31.163Z,46.53
2018-08-19T11:25:31.164Z,43.45
2018-08-19T11:26:31.177Z,43.16
2018-08-19T11:27:31.201Z,43.26
2018-08-19T11:28:31.185Z,43.45
2018-08-19T11:29:31.191Z,43.35
2018-08-19T11:30:31.199Z,43.16
2018-08-19T11:31:31.292Z,43.26
2018-08-19T11:32:31.209Z,43.43
2018-08-19T11:33:31.217Z,44.30
2018-08-19T11:34:31.227Z,44.03
2018-08-19T11:35:31.232Z,43.91
2018-08-19T11:36:31.240Z,44.23
2018-08-19T11:37:31.245Z,44.32
2018-08-19T11:38:31.326Z,44.03
2018-08-19T11:39:31.256Z,46.26
2018-08-19T11:40:31.263Z,46.55
2018-08-19T11:41:31.277Z,45.68
2018-08-19T11:42:31.279Z,44.90
2018-08-19T11:43:31.298Z,45.58
2018-08-19T11:44:31.294Z,45.48
2018-08-19T11:45:31.301Z,44.15
2018-08-19T11:46:31.303Z,43.47
2018-08-19T11:47:31.311Z,43.98
2018-08-19T11:48:31.334Z,43.88
2018-08-19T11:49:31.334Z,42.91
2018-08-19T11:50:31.365Z,43.47
2018-08-19T11:51:31.371Z,43.18
2018-08-19T11:52:31.344Z,42.23
2018-08-19T11:53:31.351Z,42.50
2018-08-19T11:54:31.364Z,42.69
2018-08-19T11:55:31.374Z,45.02
2018-08-19T11:56:31.371Z,43.57
2018-08-19T11:57:31.380Z,42.60
2018-08-19T11:58:31.395Z,42.99
2018-08-19T11:59:31.395Z,42.96
2018-08-19T12:00:31.404Z,42.89
2018-08-19T12:01:31.446Z,42.79
2018-08-19T12:02:31.440Z,42.99
2018-08-19T12:03:31.423Z,43.54
2018-08-19T12:04:31.436Z,43.45
2018-08-19T12:05:31.437Z,44.10
2018-08-19T12:06:31.446Z,44.23
2018-08-19T12:07:31.447Z,44.10
2018-08-19T12:08:31.450Z,43.62
2018-08-19T12:09:31.515Z,44.10
2018-08-19T12:10:31.477Z,44.59
2018-08-19T12:11:31.514Z,45.27
2018-08-19T12:12:31.484Z,44.71
2018-08-19T12:13:31.489Z,45.00
2018-08-19T12:14:31.502Z,44.15
2018-08-19T12:15:31.496Z,43.76
2018-08-19T12:16:31.513Z,43.47
2018-08-19T12:17:31.514Z,43.59
2018-08-19T12:18:31.523Z,43.10
2018-08-19T12:19:31.531Z,42.81
2018-08-19T12:20:31.540Z,43.10
2018-08-19T12:21:31.544Z,43.68
2018-08-19T12:22:31.547Z,43.49
2018-08-19T12:23:31.554Z,44.54
2018-08-19T12:24:31.562Z,44.54
2018-08-19T12:25:31.608Z,44.15
2018-08-19T12:26:31.592Z,44.54
2018-08-19T12:27:31.724Z,44.07
2018-08-19T12:28:31.596Z,44.46
2018-08-19T12:29:31.607Z,43.68
2018-08-19T12:30:31.612Z,44.17
2018-08-19T12:31:31.613Z,44.27
2018-08-19T12:32:31.615Z,44.46
2018-08-19T12:33:31.627Z,43.80
2018-08-19T12:34:31.636Z,43.51
2018-08-19T12:35:31.644Z,43.51
2018-08-19T12:36:31.645Z,44.37
2018-08-19T12:37:31.814Z,45.24
2018-08-19T12:38:31.883Z,45.34
2018-08-19T12:39:31.727Z,44.46
2018-08-19T12:40:31.689Z,44.37
2018-08-19T12:41:31.687Z,44.65
2018-08-19T12:42:31.689Z,44.46
2018-08-19T12:43:31.783Z,44.75
2018-08-19T12:44:31.707Z,43.61
2018-08-19T12:45:31.709Z,43.15
2018-08-19T12:46:31.723Z,43.63
2018-08-19T12:47:31.726Z,43.65
2018-08-19T12:48:31.735Z,44.38
2018-08-19T12:49:31.741Z,44.00
2018-08-19T12:50:31.746Z,44.00
2018-08-19T12:51:31.837Z,44.29
2018-08-19T12:52:31.758Z,45.26
2018-08-19T12:53:31.840Z,44.97
2018-08-19T12:54:31.778Z,45.24
2018-08-19T12:55:31.777Z,45.62
2018-08-19T12:56:31.797Z,45.07
2018-08-19T12:57:31.801Z,44.58
2018-08-19T12:58:31.806Z,45.07
2018-08-19T12:59:31.814Z,44.48
2018-08-19T13:00:31.822Z,45.24
2018-08-19T13:01:31.828Z,46.01
2018-08-19T13:02:31.833Z,45.94
2018-08-19T13:03:31.837Z,46.14
2018-08-19T13:04:31.859Z,44.79
2018-08-19T13:05:31.865Z,44.41
2018-08-19T13:06:31.859Z,44.99
2018-08-19T13:07:31.875Z,45.09
2018-08-19T13:08:31.872Z,44.99
2018-08-19T13:09:31.878Z,45.26
2018-08-19T13:10:31.899Z,45.26
2018-08-19T13:11:31.905Z,45.45
2018-08-19T13:12:31.902Z,45.45
2018-08-19T13:13:31.913Z,45.28
2018-08-19T13:14:31.923Z,45.57
2018-08-19T13:15:31.923Z,44.89
2018-08-19T13:16:31.941Z,44.99
2018-08-19T13:17:31.945Z,44.79
2018-08-19T13:18:31.952Z,44.14
2018-08-19T13:19:31.955Z,44.70
2018-08-19T13:20:31.962Z,44.70
2018-08-19T13:21:31.980Z,44.72
2018-08-19T13:22:31.983Z,44.60
2018-08-19T13:23:32.366Z,45.67
2018-08-19T13:24:31.996Z,45.17
2018-08-19T13:25:31.997Z,45.84
2018-08-19T13:26:32.022Z,45.87
2018-08-19T13:27:32.024Z,45.11
2018-08-19T13:28:32.035Z,44.53
2018-08-19T13:29:32.027Z,44.89
2018-08-19T13:30:32.036Z,45.11
2018-08-19T13:31:32.049Z,45.67
2018-08-19T13:32:32.048Z,45.97
2018-08-19T13:33:32.056Z,46.15
2018-08-19T13:34:32.062Z,46.91
2018-08-19T13:35:32.083Z,47.42
2018-08-19T13:36:40.722Z,47.32
2018-08-19T13:38:25.544Z,47.15
2018-08-19T13:39:25.535Z,46.96
2018-08-19T13:40:25.647Z,46.86
2018-08-19T13:41:25.554Z,46.86
2018-08-19T13:42:25.585Z,45.98
2018-08-19T13:43:25.556Z,46.20
2018-08-19T13:44:25.566Z,46.57
2018-08-19T13:45:25.594Z,46.11
2018-08-19T13:46:25.582Z,46.11
2018-08-19T13:47:25.599Z,45.98
2018-08-19T13:48:25.605Z,46.57
2018-08-19T13:49:25.613Z,46.57
2018-08-19T13:50:25.617Z,47.34
2018-08-19T13:51:25.645Z,47.47
2018-08-19T13:52:25.636Z,46.78
2018-08-19T13:53:25.835Z,46.78
2018-08-19T13:54:25.649Z,46.69
2018-08-19T13:55:25.953Z,46.69
2018-08-19T13:56:25.667Z,47.17
2018-08-19T13:57:25.668Z,46.69
2018-08-19T13:58:25.682Z,47.17
2018-08-19T13:59:25.681Z,46.88
2018-08-19T14:00:25.688Z,47.83
2018-08-19T14:01:25.718Z,47.54
2018-08-19T14:02:25.714Z,47.64
2018-08-19T14:03:25.761Z,47.74
2018-08-19T14:04:25.721Z,47.27
2018-08-19T14:05:25.754Z,47.05
2018-08-19T14:06:25.742Z,47.54
2018-08-19T14:07:25.757Z,48.13
2018-08-19T14:08:25.754Z,48.03
2018-08-19T14:09:25.785Z,48.03
2018-08-19T14:10:25.767Z,47.25
2018-08-19T14:11:25.786Z,47.05
2018-08-19T14:12:25.793Z,47.05
2018-08-19T14:13:25.809Z,47.83
2018-08-19T14:14:25.801Z,48.13
2018-08-19T14:15:25.805Z,48.13
2018-08-19T14:16:25.830Z,48.32
2018-08-19T14:17:25.824Z,47.47
2018-08-19T14:18:25.837Z,47.47
2018-08-19T14:19:25.849Z,47.47
2018-08-19T14:20:25.849Z,46.91
2018-08-19T14:21:25.854Z,47.56
2018-08-19T14:22:25.887Z,47.17
2018-08-19T14:23:25.878Z,46.91
2018-08-19T14:24:25.885Z,46.51
2018-08-19T14:25:25.895Z,47.08
2018-08-19T14:26:25.887Z,47.66
2018-08-19T14:27:25.898Z,47.37
2018-08-19T14:28:25.902Z,47.17
2018-08-19T14:29:25.916Z,46.61
2018-08-19T14:30:26.032Z,46.61
2018-08-19T14:31:25.931Z,46.71
2018-08-19T14:32:25.957Z,46.51
2018-08-19T14:33:25.949Z,46.42
2018-08-19T14:34:25.954Z,46.71
2018-08-19T14:35:25.964Z,47.37
2018-08-19T14:36:25.967Z,47.17
2018-08-19T14:37:25.979Z,47.00
2018-08-19T14:38:25.981Z,46.13
2018-08-19T14:39:25.992Z,46.81
2018-08-19T14:40:26.171Z,46.61
2018-08-19T14:41:26.003Z,46.88
2018-08-19T14:42:26.026Z,46.98
2018-08-19T14:43:26.022Z,46.91
2018-08-19T14:44:26.040Z,46.71
2018-08-19T14:45:26.074Z,46.81
2018-08-19T14:46:26.077Z,46.42
2018-08-19T14:47:26.060Z,46.61
2018-08-19T14:48:26.074Z,46.98
2018-08-19T14:49:26.082Z,47.17
2018-08-19T14:50:26.089Z,47.17
2018-08-19T14:51:26.079Z,47.37
2018-08-19T14:52:26.102Z,47.37
2018-08-19T14:53:26.111Z,47.27
2018-08-19T14:54:26.112Z,47.56
2018-08-19T14:55:26.127Z,48.22
2018-08-19T14:56:26.137Z,48.34
2018-08-19T14:57:26.150Z,47.47
2018-08-19T14:58:26.140Z,47.37
2018-08-19T14:59:26.146Z,47.44
2018-08-19T15:00:26.153Z,48.15
2018-08-19T15:01:26.170Z,47.37
2018-08-19T15:02:26.184Z,46.23
2018-08-19T15:03:26.194Z,46.61
2018-08-19T15:04:26.184Z,46.13
2018-08-19T15:05:26.213Z,46.69
2018-08-19T15:06:26.200Z,46.98
2018-08-19T15:07:26.221Z,46.71
2018-08-19T15:08:26.227Z,46.51
2018-08-19T15:09:26.231Z,46.61
2018-08-19T15:10:26.242Z,45.74
2018-08-19T15:11:26.250Z,45.84
2018-08-19T15:12:26.252Z,46.13
2018-08-19T15:13:26.271Z,46.69
2018-08-19T15:14:26.264Z,46.59
2018-08-19T15:15:26.280Z,46.50
2018-08-19T15:16:26.289Z,46.69
2018-08-19T15:17:26.293Z,46.78
2018-08-19T15:18:26.293Z,46.98
2018-08-19T15:19:26.304Z,46.59
2018-08-19T15:20:26.316Z,46.51
2018-08-19T15:21:26.327Z,45.62
2018-08-19T15:22:26.331Z,46.11
2018-08-19T15:23:26.335Z,46.69
2018-08-19T15:24:26.343Z,45.84
2018-08-19T15:25:26.356Z,45.74
2018-08-19T15:26:26.362Z,45.45
2018-08-19T15:27:26.386Z,45.45
2018-08-19T15:28:26.390Z,45.54
2018-08-19T15:29:26.389Z,45.06
2018-08-19T15:30:26.391Z,45.15
2018-08-19T15:31:26.402Z,45.45
2018-08-19T15:32:26.627Z,44.69
2018-08-19T15:33:26.423Z,44.38
2018-08-19T15:34:26.432Z,45.14
2018-08-19T15:35:26.432Z,44.96
2018-08-19T15:36:26.448Z,44.40
2018-08-19T15:37:26.453Z,45.45
2018-08-19T15:38:26.460Z,44.76
2018-08-19T15:39:26.465Z,44.40
2018-08-19T15:40:26.476Z,44.10
2018-08-19T15:41:26.481Z,43.81
2018-08-19T15:42:26.490Z,43.71
2018-08-19T15:43:26.504Z,43.62
2018-08-19T15:44:26.518Z,44.28
2018-08-19T15:45:26.525Z,44.76
2018-08-19T15:46:26.527Z,45.62
2018-08-19T15:47:26.529Z,44.76
2018-08-19T15:48:26.543Z,44.49
2018-08-19T15:49:26.550Z,44.20
2018-08-19T15:50:26.558Z,44.30
2018-08-19T15:51:26.598Z,44.48
2018-08-19T15:52:26.607Z,45.32
2018-08-19T15:53:26.579Z,45.04
2018-08-19T15:54:26.582Z,45.42
2018-08-19T15:55:26.596Z,45.42
2018-08-19T15:56:26.602Z,45.42
2018-08-19T15:57:26.638Z,44.48
2018-08-19T15:58:26.619Z,44.28
2018-08-19T15:59:26.627Z,44.09
2018-08-19T16:00:26.640Z,43.99
2018-08-19T16:01:26.652Z,43.79
2018-08-19T16:02:26.646Z,44.38
2018-08-19T16:03:26.672Z,43.70
2018-08-19T16:04:26.680Z,43.79
2018-08-19T16:05:26.699Z,44.48
2018-08-19T16:06:26.685Z,43.60
2018-08-19T16:07:35.354Z,43.99
2018-08-19T16:09:20.123Z,43.70